Time;durP1;ratioP1;P1;durP2;ratioP2;P2;SDS_P1;SDS_P2;PMS_P1;PMS_P2;Temp;Humidity;BMP_temperature;BMP_pressure;BME280_temperature;BME280_humidity;BME280_pressure;Samples;Min_cycle;Max_cycle;Signal;HPM_P1;HPM_P2
2024/04/11 00:02:23;;;;;;;12.27;5.22;;;;;;;;;;5407677;26;20012;-53
2024/04/11 00:04:48;;;;;;;19.00;6.85;;;;;;;;;;5402985;26;20093;-50
2024/04/11 00:07:14;;;;;;;15.23;6.75;;;;;;;;;;5373960;26;20030;-50
2024/04/11 00:09:41;;;;;;;14.00;6.30;;;;;;;;;;5378625;26;20007;-50
2024/04/11 00:12:07;;;;;;;15.60;5.57;;;;;;;;;;5407076;26;20003;-50
2024/04/11 00:14:33;;;;;;;13.68;5.32;;;;;;;;;;5409190;26;20011;-52
2024/04/11 00:16:59;;;;;;;16.23;6.05;;;;;;;;;;5375734;26;20077;-50
2024/04/11 00:19:24;;;;;;;15.25;6.05;;;;;;;;;;5400617;26;20037;-54
2024/04/11 00:21:50;;;;;;;13.30;5.88;;;;;;;;;;5407470;26;20026;-52
2024/04/11 00:24:16;;;;;;;13.65;5.70;;;;;;;;;;5408995;26;20004;-54
2024/04/11 00:26:42;;;;;;;15.18;7.35;;;;;;;;;;5383087;26;20008;-52
2024/04/11 00:29:10;;;;;;;14.15;5.90;;;;;;;;;;5373976;26;20012;-52
2024/04/11 00:31:36;;;;;;;12.27;5.55;;;;;;;;;;5371829;26;20004;-52
2024/04/11 00:34:23;;;;;;;12.80;5.68;;;;;;;;;;5373726;26;20490;-52
2024/04/11 00:36:53;;;;;;;11.27;5.88;;;;;;;;;;5371696;26;20008;-51
2024/04/11 00:39:20;;;;;;;12.48;5.90;;;;;;;;;;5371422;26;20023;-54
2024/04/11 00:41:47;;;;;;;13.27;5.85;;;;;;;;;;5372212;26;20085;-51
2024/04/11 00:44:16;;;;;;;11.32;6.00;;;;;;;;;;5373878;26;20023;-53
2024/04/11 00:46:42;;;;;;;11.75;6.03;;;;;;;;;;5342888;26;20012;-51
2024/04/11 00:49:08;;;;;;;12.23;5.97;;;;;;;;;;5373509;26;20025;-51
2024/04/11 00:51:34;;;;;;;11.57;5.22;;;;;;;;;;5373238;26;20026;-53
2024/04/11 00:54:00;;;;;;;14.35;5.90;;;;;;;;;;5373824;26;20017;-52
2024/04/11 00:56:27;;;;;;;15.25;6.20;;;;;;;;;;5397516;26;20420;-54
2024/04/11 00:58:53;;;;;;;10.43;5.68;;;;;;;;;;5406812;26;20007;-50
2024/04/11 01:01:20;;;;;;;8.95;5.32;;;;;;;;;;5408423;26;20011;-50
2024/04/11 01:03:46;;;;;;;14.98;6.10;;;;;;;;;;5395722;26;20145;-51
2024/04/11 01:06:13;;;;;;;10.85;5.70;;;;;;;;;;5373068;26;20810;-55
2024/04/11 01:08:41;;;;;;;9.13;5.38;;;;;;;;;;5371479;26;20008;-53
2024/04/11 01:11:07;;;;;;;9.30;5.63;;;;;;;;;;5397635;26;20022;-57
2024/04/11 01:13:34;;;;;;;15.52;6.75;;;;;;;;;;5374451;26;20023;-52
2024/04/11 01:16:03;;;;;;;13.50;6.35;;;;;;;;;;5371119;26;20114;-53
2024/04/11 01:18:29;;;;;;;11.43;6.35;;;;;;;;;;5387713;26;20044;-52
2024/04/11 01:20:55;;;;;;;12.20;6.22;;;;;;;;;;5403221;26;20007;-53
2024/04/11 01:23:21;;;;;;;12.43;6.20;;;;;;;;;;5372882;26;20901;-53
2024/04/11 01:25:48;;;;;;;13.20;6.18;;;;;;;;;;5372892;26;20483;-54
2024/04/11 01:28:14;;;;;;;12.15;6.10;;;;;;;;;;5370850;26;20442;-53
2024/04/11 01:30:40;;;;;;;13.38;6.18;;;;;;;;;;5390972;26;20012;-50
2024/04/11 01:33:09;;;;;;;12.43;6.15;;;;;;;;;;5378619;26;20104;-51
2024/04/11 01:35:38;;;;;;;16.40;6.38;;;;;;;;;;5385327;26;20019;-54
2024/04/11 01:38:05;;;;;;;12.68;6.07;;;;;;;;;;5388318;26;20003;-54
2024/04/11 01:40:34;;;;;;;17.27;6.70;;;;;;;;;;5405570;26;20399;-52
2024/04/11 01:43:01;;;;;;;12.02;6.40;;;;;;;;;;5407474;26;20023;-53
2024/04/11 01:45:27;;;;;;;13.20;6.90;;;;;;;;;;5392564;26;20042;-55
2024/04/11 01:47:53;;;;;;;12.68;6.85;;;;;;;;;;5407178;26;20011;-54
2024/04/11 01:50:19;;;;;;;13.02;6.45;;;;;;;;;;5405893;26;20479;-55
2024/04/11 01:52:45;;;;;;;11.98;6.32;;;;;;;;;;5408077;26;20004;-49
2024/04/11 01:55:11;;;;;;;11.93;5.80;;;;;;;;;;5373765;26;20008;-52
2024/04/11 01:57:37;;;;;;;10.27;5.15;;;;;;;;;;5404175;26;20558;-51
2024/04/11 02:00:13;;;;;;;15.70;6.35;;;;;;;;;;5373877;26;20023;-55
2024/04/11 02:02:41;;;;;;;11.95;6.47;;;;;;;;;;5403860;26;20030;-51
2024/04/11 02:05:10;;;;;;;13.48;6.55;;;;;;;;;;5375644;26;20016;-52
2024/04/11 02:07:36;;;;;;;8.20;5.25;;;;;;;;;;5408501;26;20015;-51
2024/04/11 02:10:02;;;;;;;13.07;5.97;;;;;;;;;;5399433;26;20023;-50
2024/04/11 02:12:30;;;;;;;13.43;6.20;;;;;;;;;;5374717;26;20024;-50
2024/04/11 02:14:56;;;;;;;11.13;5.68;;;;;;;;;;5386307;26;20007;-53
2024/04/11 02:17:22;;;;;;;10.05;6.20;;;;;;;;;;5352840;26;20315;-49
2024/04/11 02:20:10;;;;;;;12.90;6.22;;;;;;;;;;5374233;26;20096;-55
2024/04/11 02:22:36;;;;;;;10.55;5.93;;;;;;;;;;5375340;26;20032;-54
2024/04/11 02:25:02;;;;;;;15.93;6.20;;;;;;;;;;5405720;26;20007;-52
2024/04/11 02:27:29;;;;;;;12.93;5.82;;;;;;;;;;5386980;26;20008;-52
2024/04/11 02:29:55;;;;;;;12.13;6.50;;;;;;;;;;5372905;26;20056;-52
2024/04/11 02:32:21;;;;;;;11.65;5.75;;;;;;;;;;5372152;26;20023;-49
2024/04/11 02:34:48;;;;;;;13.60;6.47;;;;;;;;;;5343638;26;20020;-53
2024/04/11 02:37:14;;;;;;;13.90;6.25;;;;;;;;;;5375524;26;20487;-54
2024/04/11 02:39:40;;;;;;;14.18;5.90;;;;;;;;;;5374746;26;20027;-50
2024/04/11 02:42:05;;;;;;;12.98;6.20;;;;;;;;;;5372538;26;20040;-51
2024/04/11 02:44:33;;;;;;;11.55;5.78;;;;;;;;;;5374989;26;20012;-55
2024/04/11 02:47:01;;;;;;;10.45;5.43;;;;;;;;;;5371830;26;20503;-54
2024/04/11 02:49:27;;;;;;;14.03;6.00;;;;;;;;;;5344269;26;20093;-54
2024/04/11 02:51:53;;;;;;;12.93;5.78;;;;;;;;;;5374905;26;20018;-53
2024/04/11 02:54:19;;;;;;;11.77;5.45;;;;;;;;;;5344088;26;20456;-48
2024/04/11 02:56:48;;;;;;;9.43;5.13;;;;;;;;;;5372967;26;20094;-53
2024/04/11 02:59:14;;;;;;;15.18;5.85;;;;;;;;;;5372243;26;20488;-51
2024/04/11 03:01:41;;;;;;;13.38;5.20;;;;;;;;;;5372697;26;20083;-54
2024/04/11 03:04:08;;;;;;;7.75;5.53;;;;;;;;;;5374199;26;20004;-55
2024/04/11 03:06:35;;;;;;;11.05;5.40;;;;;;;;;;5374844;26;20522;-55
2024/04/11 03:09:03;;;;;;;12.25;6.22;;;;;;;;;;5374731;26;20008;-52
2024/04/11 03:11:29;;;;;;;10.90;6.30;;;;;;;;;;5395183;26;20008;-49
2024/04/11 03:13:58;;;;;;;12.70;6.40;;;;;;;;;;5378896;26;20004;-52
2024/04/11 03:16:30;;;;;;;11.00;5.90;;;;;;;;;;5408186;26;20007;-50
2024/04/11 03:18:56;;;;;;;13.35;5.40;;;;;;;;;;5389889;26;20000;-52
2024/04/11 03:21:22;;;;;;;17.75;6.15;;;;;;;;;;5372297;26;20008;-55
2024/04/11 03:23:47;;;;;;;14.18;6.30;;;;;;;;;;5374194;26;20058;-52
2024/04/11 03:26:13;;;;;;;10.75;5.00;;;;;;;;;;5374178;26;20008;-51
2024/04/11 03:28:42;;;;;;;15.00;6.05;;;;;;;;;;5374527;26;20019;-51
2024/04/11 03:31:08;;;;;;;9.32;5.70;;;;;;;;;;5391892;26;20035;-53
2024/04/11 03:33:35;;;;;;;14.18;5.68;;;;;;;;;;5409745;26;20015;-53
2024/04/11 03:36:09;;;;;;;15.63;5.22;;;;;;;;;;5410432;26;20026;-52
2024/04/11 03:38:36;;;;;;;10.10;4.85;;;;;;;;;;5405442;26;20124;-51
2024/04/11 03:41:09;;;;;;;11.93;6.10;;;;;;;;;;5373061;26;20008;-53
2024/04/11 03:43:37;;;;;;;13.73;5.72;;;;;;;;;;5372702;26;20485;-53
2024/04/11 03:46:07;;;;;;;8.95;5.22;;;;;;;;;;5372635;26;20008;-54
2024/04/11 03:48:33;;;;;;;15.68;5.97;;;;;;;;;;5374691;26;20016;-51
2024/04/11 03:51:07;;;;;;;9.68;4.97;;;;;;;;;;5372489;26;20483;-55
2024/04/11 03:53:33;;;;;;;10.52;4.95;;;;;;;;;;5372411;26;20009;-54
2024/04/11 03:55:59;;;;;;;10.93;5.00;;;;;;;;;;5374353;26;20036;-52
2024/04/11 03:58:25;;;;;;;8.02;4.80;;;;;;;;;;5374353;26;20008;-54
2024/04/11 04:00:51;;;;;;;10.05;4.10;;;;;;;;;;5360653;26;20016;-56
2024/04/11 04:03:17;;;;;;;10.15;4.35;;;;;;;;;;5373297;26;20043;-54
2024/04/11 04:05:43;;;;;;;10.35;4.70;;;;;;;;;;5373381;26;20016;-53
2024/04/11 04:08:08;;;;;;;9.60;4.88;;;;;;;;;;5371165;26;20044;-54
2024/04/11 04:10:34;;;;;;;11.57;4.50;;;;;;;;;;5375458;26;20016;-49
2024/04/11 04:13:01;;;;;;;12.25;4.82;;;;;;;;;;5377090;26;20012;-53
2024/04/11 04:15:27;;;;;;;9.13;3.67;;;;;;;;;;5377378;26;20018;-50
2024/04/11 04:17:53;;;;;;;7.55;4.15;;;;;;;;;;5370012;26;20023;-51
2024/04/11 04:20:20;;;;;;;12.90;3.90;;;;;;;;;;5374037;26;20027;-55
2024/04/11 04:22:46;;;;;;;14.48;4.93;;;;;;;;;;5373754;26;20487;-54
2024/04/11 04:25:14;;;;;;;10.73;4.22;;;;;;;;;;5371746;26;20008;-51
2024/04/11 04:27:41;;;;;;;11.70;4.45;;;;;;;;;;5372990;26;20499;-49
2024/04/11 04:30:09;;;;;;;8.18;4.40;;;;;;;;;;5371803;26;20078;-53
2024/04/11 04:32:39;;;;;;;12.50;4.40;;;;;;;;;;5371744;26;20513;-52
2024/04/11 04:35:09;;;;;;;10.48;4.20;;;;;;;;;;5373725;26;20053;-56
2024/04/11 04:37:35;;;;;;;6.88;3.42;;;;;;;;;;5371385;26;20011;-51
2024/04/11 04:40:01;;;;;;;8.63;4.50;;;;;;;;;;5372995;26;20588;-50
2024/04/11 04:42:29;;;;;;;11.88;4.30;;;;;;;;;;5393000;26;20019;-53
2024/04/11 04:44:54;;;;;;;8.02;4.13;;;;;;;;;;5377086;26;20024;-55
2024/04/11 04:47:28;;;;;;;7.82;4.07;;;;;;;;;;5406687;26;20011;-54
2024/04/11 04:49:59;;;;;;;9.48;4.03;;;;;;;;;;5406614;26;20621;-53
2024/04/11 04:52:25;;;;;;;8.25;4.45;;;;;;;;;;5383185;26;20008;-52
2024/04/11 04:54:51;;;;;;;7.05;3.78;;;;;;;;;;5373078;26;20012;-49
2024/04/11 04:57:19;;;;;;;9.55;4.50;;;;;;;;;;5370927;26;20012;-54
2024/04/11 04:59:45;;;;;;;9.63;4.45;;;;;;;;;;5372938;26;20008;-51
2024/04/11 05:02:11;;;;;;;9.45;4.15;;;;;;;;;;5344428;26;20012;-54
2024/04/11 05:04:39;;;;;;;9.80;4.55;;;;;;;;;;5406628;26;20065;-49
2024/04/11 05:07:08;;;;;;;12.95;4.93;;;;;;;;;;5408708;26;20008;-50
2024/04/11 05:09:37;;;;;;;21.35;4.95;;;;;;;;;;5403099;26;20031;-50
2024/04/11 05:12:04;;;;;;;11.43;4.60;;;;;;;;;;5374195;26;20008;-50
2024/04/11 05:14:31;;;;;;;12.30;5.35;;;;;;;;;;5408356;26;20018;-52
2024/04/11 05:17:00;;;;;;;12.77;4.95;;;;;;;;;;5407951;26;20041;-52
2024/04/11 05:19:27;;;;;;;8.93;5.05;;;;;;;;;;5376843;26;20499;-54
2024/04/11 05:21:53;;;;;;;10.60;4.45;;;;;;;;;;5373117;26;20008;-54
2024/04/11 05:24:19;;;;;;;9.38;4.70;;;;;;;;;;5385490;26;20011;-52
2024/04/11 05:26:50;;;;;;;10.40;4.65;;;;;;;;;;5406982;26;20036;-54
2024/04/11 05:29:16;;;;;;;9.57;4.85;;;;;;;;;;5407665;26;20012;-51
2024/04/11 05:31:42;;;;;;;9.93;4.85;;;;;;;;;;5411481;26;20569;-50
2024/04/11 05:34:13;;;;;;;18.75;6.25;;;;;;;;;;5400743;26;20035;-52
2024/04/11 05:36:41;;;;;;;12.70;4.95;;;;;;;;;;5374473;26;20004;-55
2024/04/11 05:39:09;;;;;;;7.82;4.80;;;;;;;;;;5376108;26;20016;-53
2024/04/11 05:41:35;;;;;;;10.88;5.15;;;;;;;;;;5373444;26;20048;-52
2024/04/11 05:44:01;;;;;;;10.18;4.50;;;;;;;;;;5374465;26;20004;-51
2024/04/11 05:46:30;;;;;;;7.05;4.18;;;;;;;;;;5344982;26;20008;-54
2024/04/11 05:48:56;;;;;;;9.48;4.53;;;;;;;;;;5375668;26;20070;-54
2024/04/11 05:51:21;;;;;;;10.50;4.10;;;;;;;;;;5379806;26;20448;-51
2024/04/11 05:53:48;;;;;;;10.63;4.72;;;;;;;;;;5408768;26;20462;-51
2024/04/11 05:56:14;;;;;;;7.05;3.60;;;;;;;;;;5410849;26;20007;-51
2024/04/11 05:58:41;;;;;;;11.80;4.28;;;;;;;;;;5411282;26;20047;-52
2024/04/11 06:01:09;;;;;;;12.80;4.20;;;;;;;;;;5372808;26;20063;-54
2024/04/11 06:03:40;;;;;;;8.82;4.18;;;;;;;;;;5373683;26;20012;-51
2024/04/11 06:06:13;;;;;;;11.30;4.30;;;;;;;;;;5375739;26;20479;-53
2024/04/11 06:08:40;;;;;;;7.93;3.85;;;;;;;;;;5373527;26;20016;-53
2024/04/11 06:11:09;;;;;;;6.88;4.25;;;;;;;;;;5402917;26;20015;-53
2024/04/11 06:13:36;;;;;;;9.02;3.50;;;;;;;;;;5401068;26;20035;-54
2024/04/11 06:16:01;;;;;;;9.50;4.10;;;;;;;;;;5409611;26;20355;-53
2024/04/11 06:18:30;;;;;;;10.38;3.92;;;;;;;;;;5395938;26;20008;-55
2024/04/11 06:20:57;;;;;;;7.47;3.30;;;;;;;;;;5344113;26;20019;-50
2024/04/11 06:23:26;;;;;;;8.85;3.35;;;;;;;;;;5372782;26;20020;-54
2024/04/11 06:25:53;;;;;;;7.97;3.78;;;;;;;;;;5344973;26;20008;-55
2024/04/11 06:28:19;;;;;;;8.88;3.80;;;;;;;;;;5373343;26;20487;-54
2024/04/11 06:30:48;;;;;;;10.95;4.10;;;;;;;;;;5373439;26;20004;-52
2024/04/11 06:33:17;;;;;;;10.75;3.60;;;;;;;;;;5384783;26;20018;-55
2024/04/11 06:35:46;;;;;;;10.88;3.88;;;;;;;;;;5382274;26;20106;-53
2024/04/11 06:38:15;;;;;;;14.40;3.88;;;;;;;;;;5375069;26;20009;-53
2024/04/11 06:40:44;;;;;;;10.65;3.08;;;;;;;;;;5373708;26;20382;-54
2024/04/11 06:43:13;;;;;;;6.70;3.40;;;;;;;;;;5378602;26;20150;-53
2024/04/11 06:45:39;;;;;;;6.50;2.95;;;;;;;;;;5374905;26;20409;-55
2024/04/11 06:48:05;;;;;;;13.30;3.33;;;;;;;;;;5373465;26;20004;-55
2024/04/11 06:50:31;;;;;;;6.35;2.95;;;;;;;;;;5375111;26;20063;-51
2024/04/11 06:52:59;;;;;;;6.63;2.85;;;;;;;;;;5375233;26;20439;-52
2024/04/11 06:55:25;;;;;;;10.43;3.07;;;;;;;;;;5343963;26;20027;-53
2024/04/11 06:57:52;;;;;;;8.13;2.53;;;;;;;;;;5375644;26;20008;-53
2024/04/11 07:00:36;;;;;;;11.23;2.88;;;;;;;;;;5373307;26;20012;-49
2024/04/11 07:03:26;;;;;;;7.00;2.42;;;;;;;;;;5376067;26;20016;-54
2024/04/11 07:06:01;;;;;;;6.53;2.33;;;;;;;;;;5373605;26;20054;-51
2024/04/11 07:08:31;;;;;;;7.90;2.85;;;;;;;;;;5375931;26;20015;-55
2024/04/11 07:11:08;;;;;;;9.43;2.65;;;;;;;;;;5373617;26;20008;-54
2024/04/11 07:13:34;;;;;;;11.35;3.03;;;;;;;;;;5377307;26;20008;-54
2024/04/11 07:16:01;;;;;;;13.25;2.85;;;;;;;;;;5381059;26;20022;-54
2024/04/11 07:18:38;;;;;;;3.55;2.10;;;;;;;;;;5357378;26;20007;-55
2024/04/11 07:21:07;;;;;;;8.70;2.65;;;;;;;;;;5409962;26;20007;-52
2024/04/11 07:23:33;;;;;;;11.18;2.40;;;;;;;;;;5377298;26;20000;-54
2024/04/11 07:25:59;;;;;;;5.22;2.22;;;;;;;;;;5381451;26;20023;-52
2024/04/11 07:28:24;;;;;;;3.78;1.60;;;;;;;;;;5371928;26;20016;-51
2024/04/11 07:30:50;;;;;;;5.68;1.95;;;;;;;;;;5373786;26;20012;-52
2024/04/11 07:33:16;;;;;;;2.22;1.70;;;;;;;;;;5374120;26;20027;-53
2024/04/11 07:35:43;;;;;;;5.78;1.90;;;;;;;;;;5372396;26;20092;-52
2024/04/11 07:38:08;;;;;;;6.75;1.90;;;;;;;;;;5374156;26;20077;-53
2024/04/11 07:40:45;;;;;;;6.22;1.60;;;;;;;;;;5372286;26;20429;-51
2024/04/11 07:43:13;;;;;;;5.88;1.73;;;;;;;;;;5372353;26;20082;-54
2024/04/11 07:45:40;;;;;;;6.28;1.60;;;;;;;;;;5370769;26;20028;-55
2024/04/11 07:48:12;;;;;;;2.75;1.80;;;;;;;;;;5373355;26;20019;-53
2024/04/11 07:50:38;;;;;;;7.82;4.25;;;;;;;;;;5371037;26;20020;-55
2024/04/11 07:53:14;;;;;;;20.35;10.55;;;;;;;;;;5373767;26;20508;-55
2024/04/11 07:55:44;;;;;;;14.00;5.45;;;;;;;;;;5372372;26;20026;-52
2024/04/11 07:58:10;;;;;;;13.88;7.75;;;;;;;;;;5372145;26;20491;-55
2024/04/11 08:00:39;;;;;;;16.13;7.85;;;;;;;;;;5373706;26;20981;-51
2024/04/11 08:03:08;;;;;;;13.25;4.25;;;;;;;;;;5374124;26;20016;-52
2024/04/11 08:05:34;;;;;;;11.55;3.20;;;;;;;;;;5403783;26;20032;-53
2024/04/11 08:08:00;;;;;;;4.85;2.47;;;;;;;;;;5404036;26;20014;-54
2024/04/11 08:10:29;;;;;;;10.52;5.00;;;;;;;;;;5373158;26;20007;-55
2024/04/11 08:12:57;;;;;;;12.65;2.05;;;;;;;;;;5377773;26;20883;-54
2024/04/11 08:15:22;;;;;;;6.38;1.98;;;;;;;;;;5377299;26;20023;-55
2024/04/11 08:17:48;;;;;;;6.07;1.60;;;;;;;;;;5380014;26;20049;-55
2024/04/11 08:20:14;;;;;;;3.25;1.60;;;;;;;;;;5406679;26;20111;-54
2024/04/11 08:22:41;;;;;;;16.15;5.07;;;;;;;;;;5407992;26;20007;-53
2024/04/11 08:25:09;;;;;;;28.17;9.20;;;;;;;;;;5408970;26;20496;-52
2024/04/11 08:27:35;;;;;;;46.03;10.05;;;;;;;;;;5339593;26;20641;-56
2024/04/11 08:30:01;;;;;;;27.17;3.67;;;;;;;;;;5373260;26;20004;-57
2024/04/11 08:32:29;;;;;;;5.85;1.40;;;;;;;;;;5371781;26;20043;-55
2024/04/11 08:34:54;;;;;;;83.22;33.10;;;;;;;;;;5371408;26;20005;-54
2024/04/11 08:37:20;;;;;;;28.27;7.78;;;;;;;;;;5377742;26;20012;-50
2024/04/11 08:39:46;;;;;;;30.58;8.23;;;;;;;;;;5382829;26;20015;-55
2024/04/11 08:42:12;;;;;;;6.70;2.72;;;;;;;;;;5406688;26;20015;-55
2024/04/11 08:44:41;;;;;;;22.63;8.05;;;;;;;;;;5406861;26;20495;-55
2024/04/11 08:47:06;;;;;;;;;;;;;;;;;;5403233;26;20020;-56
2024/04/11 08:49:32;;;;;;;6.38;1.70;;;;;;;;;;5365804;26;19933;-54
2024/04/11 08:51:59;;;;;;;6.88;2.95;;;;;;;;;;5342688;26;20019;-52
2024/04/11 08:54:25;;;;;;;15.98;2.83;;;;;;;;;;5371078;26;20008;-57
2024/04/11 08:56:52;;;;;;;6.20;2.17;;;;;;;;;;5372997;26;20018;-55
2024/04/11 08:59:19;;;;;;;20.92;2.45;;;;;;;;;;5370114;26;20015;-54
2024/04/11 09:01:45;;;;;;;48.60;4.13;;;;;;;;;;5408555;26;20141;-53
2024/04/11 09:04:10;;;;;;;61.50;5.60;;;;;;;;;;5388821;26;20488;-55
2024/04/11 09:06:37;;;;;;;9.95;1.95;;;;;;;;;;5373076;26;20024;-55
2024/04/11 09:09:10;;;;;;;5.65;1.35;;;;;;;;;;5375746;26;20150;-58
2024/04/11 09:11:35;;;;;;;6.82;1.67;;;;;;;;;;5370755;26;20669;-56
2024/04/11 09:14:02;;;;;;;6.38;1.45;;;;;;;;;;5372334;26;20042;-52
2024/04/11 09:16:28;;;;;;;5.10;1.83;;;;;;;;;;5341791;26;20004;-55
2024/04/11 09:19:09;;;;;;;1.30;1.10;;;;;;;;;;5381578;26;20016;-53
2024/04/11 09:21:42;;;;;;;2.85;1.00;;;;;;;;;;5390975;26;20080;-55
2024/04/11 09:24:13;;;;;;;3.00;1.10;;;;;;;;;;5376509;26;20369;-56
2024/04/11 09:26:43;;;;;;;2.13;0.90;;;;;;;;;;5407641;26;20477;-56
2024/04/11 09:29:11;;;;;;;4.70;1.10;;;;;;;;;;5396776;26;20008;-56
2024/04/11 09:31:37;;;;;;;1.75;0.90;;;;;;;;;;5370485;26;20106;-56
2024/04/11 09:34:11;;;;;;;1.35;0.90;;;;;;;;;;5370580;26;20009;-55
2024/04/11 09:37:03;;;;;;;2.92;1.02;;;;;;;;;;5372249;26;20555;-56
2024/04/11 09:39:45;;;;;;;1.73;1.02;;;;;;;;;;5374916;26;20889;-54
2024/04/11 09:42:18;;;;;;;2.13;1.23;;;;;;;;;;5373197;26;20008;-53
2024/04/11 09:44:48;;;;;;;2.85;0.90;;;;;;;;;;5372900;26;20019;-56
2024/04/11 09:47:18;;;;;;;10.00;1.20;;;;;;;;;;5372132;26;20041;-56
2024/04/11 09:49:54;;;;;;;2.80;0.90;;;;;;;;;;5369628;26;20004;-55
2024/04/11 09:52:26;;;;;;;4.78;1.08;;;;;;;;;;5372105;26;20430;-56
2024/04/11 09:54:52;;;;;;;8.15;1.30;;;;;;;;;;5370346;26;20008;-53
2024/04/11 09:57:19;;;;;;;8.02;1.42;;;;;;;;;;5370278;26;20019;-55
2024/04/11 09:59:45;;;;;;;3.85;1.10;;;;;;;;;;5369772;26;20000;-53
2024/04/11 10:02:13;;;;;;;4.85;1.23;;;;;;;;;;5375313;26;20509;-57
2024/04/11 10:04:42;;;;;;;2.35;0.98;;;;;;;;;;5394769;26;20056;-54
2024/04/11 10:07:09;;;;;;;4.50;1.00;;;;;;;;;;5405313;26;20047;-54
2024/04/11 10:09:35;;;;;;;5.53;1.45;;;;;;;;;;5401527;26;20001;-52
2024/04/11 10:12:04;;;;;;;5.15;1.35;;;;;;;;;;5374807;26;20575;-53
2024/04/11 10:14:32;;;;;;;5.03;1.23;;;;;;;;;;5340802;26;20011;-55
2024/04/11 10:17:01;;;;;;;;;;;;;;;;;;5375603;26;20379;-54
2024/04/11 10:19:27;;;;;;;3.45;1.02;;;;;;;;;;5373101;26;20564;-53
2024/04/11 10:22:00;;;;;;;7.18;1.40;;;;;;;;;;5388765;26;20103;-57
2024/04/11 10:24:31;;;;;;;6.65;1.23;;;;;;;;;;5373063;26;20105;-52
2024/04/11 10:27:19;;;;;;;5.22;1.30;;;;;;;;;;5373281;26;20005;-53
2024/04/11 10:29:47;;;;;;;2.50;1.05;;;;;;;;;;5375083;26;20028;-54
2024/04/11 10:32:22;;;;;;;2.80;1.20;;;;;;;;;;5372490;26;20015;-55
2024/04/11 10:34:55;;;;;;;9.48;1.35;;;;;;;;;;5373164;26;20455;-55
2024/04/11 10:37:26;;;;;;;2.95;0.95;;;;;;;;;;5373139;26;20410;-53
2024/04/11 10:39:57;;;;;;;2.88;1.00;;;;;;;;;;5374955;26;20019;-56
2024/04/11 10:42:36;;;;;;;6.35;1.10;;;;;;;;;;5372229;26;20057;-54
2024/04/11 10:45:11;;;;;;;3.03;0.93;;;;;;;;;;5373225;26;20004;-52
2024/04/11 10:47:41;;;;;;;2.75;1.00;;;;;;;;;;5372567;26;20141;-55
2024/04/11 10:50:13;;;;;;;4.35;0.95;;;;;;;;;;5374352;26;20016;-51
2024/04/11 10:52:39;;;;;;;4.80;0.90;;;;;;;;;;5374251;26;20018;-55
2024/04/11 10:55:13;;;;;;;3.47;1.17;;;;;;;;;;5372196;26;20004;-55
2024/04/11 10:57:41;;;;;;;2.38;1.00;;;;;;;;;;5372191;26;20012;-51
2024/04/11 11:00:10;;;;;;;6.28;1.25;;;;;;;;;;5372063;26;20093;-54
2024/04/11 11:02:37;;;;;;;1.98;0.80;;;;;;;;;;5376816;26;20000;-52
2024/04/11 11:05:06;;;;;;;3.80;1.00;;;;;;;;;;5405466;26;20003;-54
2024/04/11 11:07:32;;;;;;;4.20;1.08;;;;;;;;;;5409252;26;20022;-51
2024/04/11 11:09:59;;;;;;;10.65;1.25;;;;;;;;;;5396872;26;20104;-51
2024/04/11 11:12:24;;;;;;;12.45;1.30;;;;;;;;;;5373040;26;20023;-53
2024/04/11 11:14:53;;;;;;;5.82;1.00;;;;;;;;;;5377784;26;20014;-54
2024/04/11 11:17:18;;;;;;;7.07;0.97;;;;;;;;;;5409753;26;20467;-53
2024/04/11 11:19:45;;;;;;;3.60;0.90;;;;;;;;;;5376314;26;20234;-54
2024/04/11 11:22:11;;;;;;;2.33;0.68;;;;;;;;;;5343542;26;20015;-56
2024/04/11 11:24:37;;;;;;;2.90;0.80;;;;;;;;;;5375241;26;20023;-55
2024/04/11 11:27:05;;;;;;;4.35;1.10;;;;;;;;;;5371599;26;20505;-56
2024/04/11 11:29:31;;;;;;;2.53;1.10;;;;;;;;;;5374115;26;20015;-53
2024/04/11 11:32:04;;;;;;;2.35;1.08;;;;;;;;;;5373878;26;20015;-53
2024/04/11 11:34:31;;;;;;;12.00;1.70;;;;;;;;;;5374587;26;20078;-54
2024/04/11 11:37:01;;;;;;;2.17;0.90;;;;;;;;;;5343244;26;20019;-55
2024/04/11 11:39:27;;;;;;;3.75;1.20;;;;;;;;;;5374119;26;20004;-57
2024/04/11 11:42:08;;;;;;;3.70;0.90;;;;;;;;;;5343325;26;20008;-49
2024/04/11 11:44:45;;;;;;;3.63;1.10;;;;;;;;;;5374764;26;20008;-54
2024/04/11 11:47:11;;;;;;;3.42;1.13;;;;;;;;;;5408111;26;20003;-55
2024/04/11 11:49:37;;;;;;;5.63;1.17;;;;;;;;;;5407379;26;20093;-54
2024/04/11 11:52:03;;;;;;;3.55;1.13;;;;;;;;;;5406673;26;20072;-53
2024/04/11 11:54:34;;;;;;;3.92;1.20;;;;;;;;;;5409492;26;20016;-48
2024/04/11 11:57:09;;;;;;;4.85;1.20;;;;;;;;;;5407179;26;20011;-51
2024/04/11 11:59:36;;;;;;;5.05;1.20;;;;;;;;;;5409193;26;20004;-50
2024/04/11 12:02:01;;;;;;;1.77;1.00;;;;;;;;;;5409009;26;20011;-54
2024/04/11 12:04:30;;;;;;;2.38;1.00;;;;;;;;;;5409006;26;20014;-51
2024/04/11 12:06:59;;;;;;;1.25;1.02;;;;;;;;;;5381658;26;20387;-52
2024/04/11 12:09:31;;;;;;;2.17;0.82;;;;;;;;;;5391259;26;20014;-52
2024/04/11 12:14:42;;;;;;;7.15;1.23;;;;;;;;;;5373145;26;20019;-53
2024/04/11 12:17:10;;;;;;;3.53;0.80;;;;;;;;;;5374372;26;20013;-48
2024/04/11 12:19:36;;;;;;;4.72;0.95;;;;;;;;;;5404548;26;20026;-52
2024/04/11 12:22:13;;;;;;;5.97;0.80;;;;;;;;;;5377137;26;20004;-51
2024/04/11 12:24:39;;;;;;;4.20;1.52;;;;;;;;;;5406242;26;20383;-55
2024/04/11 12:27:05;;;;;;;1.38;1.00;;;;;;;;;;5389984;26;20444;-53
2024/04/11 12:29:31;;;;;;;7.65;1.10;;;;;;;;;;5372715;26;20032;-53
2024/04/11 12:32:02;;;;;;;7.43;1.20;;;;;;;;;;5341688;26;20092;-53
2024/04/11 12:34:32;;;;;;;11.85;2.08;;;;;;;;;;5313129;26;20004;-53
2024/04/11 12:37:10;;;;;;;3.47;0.88;;;;;;;;;;5372700;26;20019;-50
2024/04/11 12:39:41;;;;;;;5.32;1.23;;;;;;;;;;5370604;26;20520;-55
2024/04/11 12:42:07;;;;;;;4.03;0.93;;;;;;;;;;5370808;26;20019;-55
2024/04/11 12:44:36;;;;;;;4.43;1.10;;;;;;;;;;5371336;26;20004;-53
2024/04/11 12:47:14;;;;;;;7.97;1.38;;;;;;;;;;5348750;26;19999;-48
2024/04/11 12:49:58;;;;;;;8.67;1.77;;;;;;;;;;5404334;26;20000;-49
2024/04/11 12:52:24;;;;;;;10.68;1.75;;;;;;;;;;5376979;26;20040;-52
2024/04/11 12:54:58;;;;;;;10.43;2.15;;;;;;;;;;5408375;26;20007;-50
2024/04/11 12:57:28;;;;;;;7.90;1.27;;;;;;;;;;5402201;26;20020;-51
2024/04/11 13:00:07;;;;;;;6.10;1.15;;;;;;;;;;5371212;26;19996;-58
2024/04/11 13:02:39;;;;;;;3.28;0.70;;;;;;;;;;5396838;26;20022;-50
2024/04/11 13:05:13;;;;;;;6.82;1.17;;;;;;;;;;5406650;26;20007;-55
2024/04/11 13:07:42;;;;;;;11.32;2.47;;;;;;;;;;5401855;26;20364;-52
2024/04/11 13:10:08;;;;;;;2.20;0.80;;;;;;;;;;5386127;26;20075;-51
2024/04/11 13:12:36;;;;;;;3.72;1.13;;;;;;;;;;5408260;26;20007;-50
2024/04/11 13:17:33;;;;;;;3.55;0.90;;;;;;;;;;5407624;26;20841;-52
2024/04/11 13:19:59;;;;;;;6.30;1.10;;;;;;;;;;5374982;26;20008;-52
2024/04/11 13:22:27;;;;;;;2.83;0.80;;;;;;;;;;5373048;26;20098;-51
2024/04/11 13:24:59;;;;;;;2.13;0.90;;;;;;;;;;5371037;26;20004;-55
2024/04/11 13:27:37;;;;;;;3.45;0.68;;;;;;;;;;5372805;26;20015;-50
2024/04/11 13:30:12;;;;;;;1.50;0.67;;;;;;;;;;5376750;26;20016;-56
2024/04/11 13:32:45;;;;;;;3.30;0.90;;;;;;;;;;5371114;26;20074;-50
2024/04/11 13:35:14;;;;;;;4.95;1.00;;;;;;;;;;5373380;26;20415;-52
2024/04/11 13:37:42;;;;;;;5.38;0.70;;;;;;;;;;5373041;26;20082;-54
2024/04/11 13:42:55;;;;;;;4.50;0.68;;;;;;;;;;5370695;26;20434;-53
2024/04/11 13:45:24;;;;;;;3.90;0.75;;;;;;;;;;5373047;26;20008;-55
2024/04/11 13:47:58;;;;;;;2.70;0.80;;;;;;;;;;5370790;26;20004;-55
2024/04/11 13:50:34;;;;;;;2.47;0.80;;;;;;;;;;5377426;26;20019;-53
2024/04/11 13:53:05;;;;;;;2.75;0.73;;;;;;;;;;5376225;26;20023;-55
2024/04/11 13:55:41;;;;;;;3.88;1.00;;;;;;;;;;5375949;26;20467;-54
2024/04/11 13:58:09;;;;;;;5.35;1.08;;;;;;;;;;5387082;26;20451;-51
2024/04/11 14:00:38;;;;;;;3.55;0.90;;;;;;;;;;5382629;26;20004;-53
2024/04/11 14:03:23;;;;;;;2.85;0.70;;;;;;;;;;5342992;26;20004;-59
2024/04/11 14:05:59;;;;;;;3.97;0.88;;;;;;;;;;5375210;26;20000;-57
2024/04/11 14:08:26;;;;;;;3.88;0.75;;;;;;;;;;5373244;26;20476;-56
2024/04/11 14:10:52;;;;;;;7.30;1.15;;;;;;;;;;5382075;26;20470;-57
2024/04/11 14:13:17;;;;;;;0.90;0.63;;;;;;;;;;5391114;26;20036;-52
2024/04/11 14:15:44;;;;;;;4.70;0.98;;;;;;;;;;5379950;26;20030;-51
2024/04/11 14:18:17;;;;;;;3.83;1.10;;;;;;;;;;5383808;26;20578;-51
2024/04/11 14:20:50;;;;;;;1.85;0.90;;;;;;;;;;5392500;26;20374;-49
2024/04/11 14:23:32;;;;;;;4.35;0.95;;;;;;;;;;5391143;26;20853;-53
2024/04/11 14:26:07;;;;;;;6.43;1.65;;;;;;;;;;5353199;26;20000;-53
2024/04/11 14:28:43;;;;;;;3.47;1.10;;;;;;;;;;5374709;26;20084;-54
2024/04/11 14:31:10;;;;;;;13.38;1.52;;;;;;;;;;5315465;26;20005;-53
2024/04/11 14:34:19;;;;;;;6.07;1.00;;;;;;;;;;5375546;26;20701;-54
2024/04/11 14:36:27;;;;;;;7.90;0.95;;;;;;;;;;5383883;26;20081;-53
2024/04/11 14:39:05;;;;;;;6.03;0.90;;;;;;;;;;5400373;26;20016;-52
2024/04/11 14:41:35;;;;;;;4.80;2.00;;;;;;;;;;5372102;26;20016;-58
2024/04/11 14:44:08;;;;;;;12.10;1.75;;;;;;;;;;5344088;26;20063;-51
2024/04/11 14:46:35;;;;;;;33.28;3.67;;;;;;;;;;5373248;26;20012;-53
2024/04/11 14:49:04;;;;;;;4.75;1.10;;;;;;;;;;5374878;26;20008;-55
2024/04/11 14:51:40;;;;;;;7.60;1.40;;;;;;;;;;5400062;26;20011;-51
2024/04/11 14:54:15;;;;;;;5.57;1.30;;;;;;;;;;5373927;26;20081;-57
2024/04/11 14:56:43;;;;;;;5.25;1.20;;;;;;;;;;5384588;26;20062;-58